sensor_id;sensor_type;location;lat;lon;timestamp;temperature;humidity
10980;DHT22;5543;51.734;8.744;2023-08-06T08:10:31;20.00;99.90
10980;DHT22;5543;51.734;8.744;2023-08-06T12:52:09;22.70;99.90
10980;DHT22;5543;51.734;8.744;2023-08-06T12:54:39;23.10;99.90
10980;DHT22;5543;51.734;8.744;2023-08-06T12:57:07;23.60;99.90
10980;DHT22;5543;51.734;8.744;2023-08-06T12:59:35;24.10;99.90
10980;DHT22;5543;51.734;8.744;2023-08-06T13:02:04;24.60;99.90
10980;DHT22;5543;51.734;8.744;2023-08-06T13:04:32;25.00;99.90
10980;DHT22;5543;51.734;8.744;2023-08-06T13:07:01;25.50;99.90
10980;DHT22;5543;51.734;8.744;2023-08-06T13:09:30;25.80;99.90
10980;DHT22;5543;51.734;8.744;2023-08-06T13:11:59;26.10;99.90
10980;DHT22;5543;51.734;8.744;2023-08-06T13:14:31;26.50;99.90
10980;DHT22;5543;51.734;8.744;2023-08-06T13:17:00;26.00;99.90
10980;DHT22;5543;51.734;8.744;2023-08-06T13:19:29;25.80;99.90
10980;DHT22;5543;51.734;8.744;2023-08-06T13:22:01;26.40;99.90
10980;DHT22;5543;51.734;8.744;2023-08-06T13:24:32;26.90;99.90
10980;DHT22;5543;51.734;8.744;2023-08-06T13:27:01;27.30;99.70
10980;DHT22;5543;51.734;8.744;2023-08-06T13:29:29;27.80;98.00
10980;DHT22;5543;51.734;8.744;2023-08-06T13:31:57;28.20;96.20
10980;DHT22;5543;51.734;8.744;2023-08-06T13:34:26;28.60;96.80
10980;DHT22;5543;51.734;8.744;2023-08-06T13:36:54;28.40;95.80
10980;DHT22;5543;51.734;8.744;2023-08-06T13:39:22;27.50;94.80
10980;DHT22;5543;51.734;8.744;2023-08-06T13:41:51;26.70;95.90
10980;DHT22;5543;51.734;8.744;2023-08-06T13:44:19;26.00;97.60
10980;DHT22;5543;51.734;8.744;2023-08-06T13:46:47;25.30;97.70
10980;DHT22;5543;51.734;8.744;2023-08-06T13:49:15;24.80;99.10
10980;DHT22;5543;51.734;8.744;2023-08-06T13:51:44;24.50;99.90
10980;DHT22;5543;51.734;8.744;2023-08-06T13:54:12;24.10;99.90
10980;DHT22;5543;51.734;8.744;2023-08-06T13:56:40;23.60;99.90
10980;DHT22;5543;51.734;8.744;2023-08-06T13:59:09;23.20;99.90
10980;DHT22;5543;51.734;8.744;2023-08-06T14:01:40;23.00;99.90
10980;DHT22;5543;51.734;8.744;2023-08-06T14:04:17;22.70;99.90
10980;DHT22;5543;51.734;8.744;2023-08-06T14:06:45;22.40;99.90
10980;DHT22;5543;51.734;8.744;2023-08-06T14:09:13;22.00;99.90
10980;DHT22;5543;51.734;8.744;2023-08-06T14:11:46;21.60;99.60
10980;DHT22;5543;51.734;8.744;2023-08-06T14:14:16;21.20;99.90
10980;DHT22;5543;51.734;8.744;2023-08-06T14:16:44;20.90;99.90
10980;DHT22;5543;51.734;8.744;2023-08-06T14:19:12;20.40;99.90
10980;DHT22;5543;51.734;8.744;2023-08-06T14:21:40;20.00;99.90
10980;DHT22;5543;51.734;8.744;2023-08-06T14:24:08;19.60;99.90
10980;DHT22;5543;51.734;8.744;2023-08-06T14:26:37;19.40;99.90
10980;DHT22;5543;51.734;8.744;2023-08-06T14:29:05;19.20;99.90
10980;DHT22;5543;51.734;8.744;2023-08-06T14:31:34;19.00;99.90
10980;DHT22;5543;51.734;8.744;2023-08-06T14:34:02;18.80;99.90
10980;DHT22;5543;51.734;8.744;2023-08-06T14:36:30;18.50;99.90
10980;DHT22;5543;51.734;8.744;2023-08-06T14:38:59;18.30;99.90
10980;DHT22;5543;51.734;8.744;2023-08-06T14:41:27;18.00;99.90
10980;DHT22;5543;51.734;8.744;2023-08-06T14:43:55;17.90;99.90
10980;DHT22;5543;51.734;8.744;2023-08-06T14:46:23;17.80;99.90
10980;DHT22;5543;51.734;8.744;2023-08-06T14:48:53;17.60;99.90
10980;DHT22;5543;51.734;8.744;2023-08-06T14:51:21;17.60;99.90
10980;DHT22;5543;51.734;8.744;2023-08-06T14:53:50;17.50;99.90
10980;DHT22;5543;51.734;8.744;2023-08-06T14:56:18;17.50;99.90
10980;DHT22;5543;51.734;8.744;2023-08-06T14:58:46;17.40;99.90
10980;DHT22;5543;51.734;8.744;2023-08-06T15:01:14;17.40;99.90
10980;DHT22;5543;51.734;8.744;2023-08-06T15:03:43;17.40;99.90
10980;DHT22;5543;51.734;8.744;2023-08-06T15:06:12;17.30;99.90
10980;DHT22;5543;51.734;8.744;2023-08-06T15:08:40;17.10;99.90
10980;DHT22;5543;51.734;8.744;2023-08-06T15:11:10;17.20;99.90
10980;DHT22;5543;51.734;8.744;2023-08-06T15:13:39;17.10;99.90
10980;DHT22;5543;51.734;8.744;2023-08-06T15:16:07;17.10;99.90
10980;DHT22;5543;51.734;8.744;2023-08-06T15:18:35;17.10;99.90
10980;DHT22;5543;51.734;8.744;2023-08-06T15:21:03;17.10;99.90
10980;DHT22;5543;51.734;8.744;2023-08-06T15:23:33;17.00;99.90
10980;DHT22;5543;51.734;8.744;2023-08-06T15:26:01;17.00;99.90
10980;DHT22;5543;51.734;8.744;2023-08-06T15:28:29;17.00;99.90
10980;DHT22;5543;51.734;8.744;2023-08-06T15:30:57;17.10;99.90
10980;DHT22;5543;51.734;8.744;2023-08-06T15:33:25;17.20;99.90
10980;DHT22;5543;51.734;8.744;2023-08-06T15:35:53;17.20;99.90
10980;DHT22;5543;51.734;8.744;2023-08-06T15:38:22;17.20;99.90
10980;DHT22;5543;51.734;8.744;2023-08-06T15:40:51;17.30;99.90
10980;DHT22;5543;51.734;8.744;2023-08-06T15:43:19;17.20;99.90
10980;DHT22;5543;51.734;8.744;2023-08-06T15:45:47;17.30;99.90
10980;DHT22;5543;51.734;8.744;2023-08-06T15:48:16;17.40;99.90
10980;DHT22;5543;51.734;8.744;2023-08-06T15:50:44;17.60;99.90
10980;DHT22;5543;51.734;8.744;2023-08-06T15:53:13;17.70;99.90
10980;DHT22;5543;51.734;8.744;2023-08-06T15:55:41;17.70;99.90
10980;DHT22;5543;51.734;8.744;2023-08-06T15:58:11;17.80;99.90
10980;DHT22;5543;51.734;8.744;2023-08-06T16:00:39;17.80;99.90
10980;DHT22;5543;51.734;8.744;2023-08-06T16:03:07;17.70;99.90
10980;DHT22;5543;51.734;8.744;2023-08-06T16:05:36;17.70;99.90
10980;DHT22;5543;51.734;8.744;2023-08-06T16:08:05;17.80;99.90
10980;DHT22;5543;51.734;8.744;2023-08-06T16:10:34;17.70;99.90
10980;DHT22;5543;51.734;8.744;2023-08-06T16:13:02;17.60;99.90
10980;DHT22;5543;51.734;8.744;2023-08-06T16:15:32;17.60;99.90
10980;DHT22;5543;51.734;8.744;2023-08-06T16:18:00;17.50;99.90
10980;DHT22;5543;51.734;8.744;2023-08-06T16:20:29;17.40;99.90
10980;DHT22;5543;51.734;8.744;2023-08-06T16:22:58;17.30;99.90
10980;DHT22;5543;51.734;8.744;2023-08-06T16:25:31;17.20;99.90
10980;DHT22;5543;51.734;8.744;2023-08-06T16:28:12;17.00;99.90
10980;DHT22;5543;51.734;8.744;2023-08-06T16:30:45;16.90;99.90
10980;DHT22;5543;51.734;8.744;2023-08-06T16:33:14;16.80;99.90
10980;DHT22;5543;51.734;8.744;2023-08-06T16:35:42;16.70;99.90
10980;DHT22;5543;51.734;8.744;2023-08-06T16:38:11;16.70;99.90
10980;DHT22;5543;51.734;8.744;2023-08-06T16:40:39;16.60;99.90
10980;DHT22;5543;51.734;8.744;2023-08-06T16:43:07;16.60;99.90
10980;DHT22;5543;51.734;8.744;2023-08-06T16:45:36;16.60;99.90
10980;DHT22;5543;51.734;8.744;2023-08-06T16:48:08;16.60;99.90
10980;DHT22;5543;51.734;8.744;2023-08-06T16:50:37;16.00;99.90
10980;DHT22;5543;51.734;8.744;2023-08-06T16:53:07;16.00;99.90
10980;DHT22;5543;51.734;8.744;2023-08-06T16:55:35;16.40;99.90
10980;DHT22;5543;51.734;8.744;2023-08-06T16:58:06;16.30;99.90
10980;DHT22;5543;51.734;8.744;2023-08-06T17:00:38;16.30;99.90
10980;DHT22;5543;51.734;8.744;2023-08-06T17:03:11;16.20;99.90
10980;DHT22;5543;51.734;8.744;2023-08-06T17:05:39;16.10;99.90
10980;DHT22;5543;51.734;8.744;2023-08-06T17:08:07;16.10;99.90
10980;DHT22;5543;51.734;8.744;2023-08-06T17:10:36;16.00;99.90
10980;DHT22;5543;51.734;8.744;2023-08-06T17:13:05;16.00;99.90
10980;DHT22;5543;51.734;8.744;2023-08-06T17:15:46;15.90;99.90
10980;DHT22;5543;51.734;8.744;2023-08-06T17:18:16;15.90;99.90
10980;DHT22;5543;51.734;8.744;2023-08-06T17:20:45;15.90;99.90
10980;DHT22;5543;51.734;8.744;2023-08-06T17:23:14;15.80;99.90
10980;DHT22;5543;51.734;8.744;2023-08-06T17:25:43;15.70;99.90
10980;DHT22;5543;51.734;8.744;2023-08-06T17:28:12;15.80;99.90
10980;DHT22;5543;51.734;8.744;2023-08-06T17:30:41;15.70;99.90
10980;DHT22;5543;51.734;8.744;2023-08-06T17:33:10;15.60;99.90
10980;DHT22;5543;51.734;8.744;2023-08-06T17:35:44;15.60;99.90
10980;DHT22;5543;51.734;8.744;2023-08-06T17:38:13;15.60;99.90
10980;DHT22;5543;51.734;8.744;2023-08-06T17:41:05;15.50;99.90
10980;DHT22;5543;51.734;8.744;2023-08-06T17:43:34;15.60;99.90
10980;DHT22;5543;51.734;8.744;2023-08-06T17:46:54;15.50;99.90
10980;DHT22;5543;51.734;8.744;2023-08-06T17:49:43;15.50;99.90
10980;DHT22;5543;51.734;8.744;2023-08-06T17:52:21;15.30;99.90
10980;DHT22;5543;51.734;8.744;2023-08-06T17:54:52;15.40;99.90
10980;DHT22;5543;51.734;8.744;2023-08-06T17:57:33;15.40;99.90
10980;DHT22;5543;51.734;8.744;2023-08-06T18:00:01;15.40;99.90
10980;DHT22;5543;51.734;8.744;2023-08-06T18:02:33;15.40;99.90
10980;DHT22;5543;51.734;8.744;2023-08-06T18:05:02;15.40;99.90
10980;DHT22;5543;51.734;8.744;2023-08-06T18:07:31;15.40;99.90
10980;DHT22;5543;51.734;8.744;2023-08-06T18:10:06;15.30;99.90
10980;DHT22;5543;51.734;8.744;2023-08-06T18:12:41;15.30;99.90
10980;DHT22;5543;51.734;8.744;2023-08-06T18:15:15;15.30;99.90
10980;DHT22;5543;51.734;8.744;2023-08-06T18:18:08;15.20;99.90
10980;DHT22;5543;51.734;8.744;2023-08-06T18:20:42;15.20;99.90
10980;DHT22;5543;51.734;8.744;2023-08-06T18:23:19;15.10;99.90
10980;DHT22;5543;51.734;8.744;2023-08-06T18:25:49;15.10;99.90
10980;DHT22;5543;51.734;8.744;2023-08-06T18:28:43;15.00;99.90
10980;DHT22;5543;51.734;8.744;2023-08-06T18:31:14;15.00;99.90
10980;DHT22;5543;51.734;8.744;2023-08-06T18:34:03;15.00;99.90
10980;DHT22;5543;51.734;8.744;2023-08-06T18:36:32;15.00;99.90
10980;DHT22;5543;51.734;8.744;2023-08-06T18:39:27;14.90;99.90
10980;DHT22;5543;51.734;8.744;2023-08-06T18:41:55;14.90;99.90
10980;DHT22;5543;51.734;8.744;2023-08-06T18:44:24;14.90;99.90
10980;DHT22;5543;51.734;8.744;2023-08-06T18:46:52;14.90;99.90
10980;DHT22;5543;51.734;8.744;2023-08-06T18:49:21;14.90;99.90
10980;DHT22;5543;51.734;8.744;2023-08-06T18:51:49;14.90;99.90
10980;DHT22;5543;51.734;8.744;2023-08-06T18:54:18;14.80;99.90
10980;DHT22;5543;51.734;8.744;2023-08-06T18:56:59;14.80;99.90
10980;DHT22;5543;51.734;8.744;2023-08-06T18:59:36;14.80;99.90
10980;DHT22;5543;51.734;8.744;2023-08-06T19:02:08;14.80;99.90
10980;DHT22;5543;51.734;8.744;2023-08-06T19:04:37;14.80;99.90
10980;DHT22;5543;51.734;8.744;2023-08-06T19:07:05;14.80;99.90
10980;DHT22;5543;51.734;8.744;2023-08-06T19:09:36;14.80;99.90
10980;DHT22;5543;51.734;8.744;2023-08-06T19:12:07;14.70;99.90
10980;DHT22;5543;51.734;8.744;2023-08-06T19:14:38;14.70;99.90
10980;DHT22;5543;51.734;8.744;2023-08-06T19:17:40;14.70;99.90
10980;DHT22;5543;51.734;8.744;2023-08-06T19:20:10;14.70;99.90
10980;DHT22;5543;51.734;8.744;2023-08-06T19:22:43;14.70;99.90
10980;DHT22;5543;51.734;8.744;2023-08-06T19:25:13;14.70;99.90
10980;DHT22;5543;51.734;8.744;2023-08-06T19:27:42;14.70;99.90
10980;DHT22;5543;51.734;8.744;2023-08-06T19:30:11;14.70;99.90
10980;DHT22;5543;51.734;8.744;2023-08-06T19:32:40;14.70;99.90
10980;DHT22;5543;51.734;8.744;2023-08-06T19:35:08;14.70;99.90
10980;DHT22;5543;51.734;8.744;2023-08-06T19:37:36;14.60;99.90
10980;DHT22;5543;51.734;8.744;2023-08-06T19:40:06;14.70;99.90
10980;DHT22;5543;51.734;8.744;2023-08-06T19:42:35;14.70;99.90
10980;DHT22;5543;51.734;8.744;2023-08-06T19:45:07;14.70;99.90
10980;DHT22;5543;51.734;8.744;2023-08-06T19:47:37;14.60;99.90
10980;DHT22;5543;51.734;8.744;2023-08-06T19:50:11;14.70;99.90
10980;DHT22;5543;51.734;8.744;2023-08-06T19:52:57;14.70;99.90
10980;DHT22;5543;51.734;8.744;2023-08-06T19:55:37;14.70;99.90
10980;DHT22;5543;51.734;8.744;2023-08-06T19:58:10;14.70;99.90
10980;DHT22;5543;51.734;8.744;2023-08-06T20:01:02;14.70;99.90
10980;DHT22;5543;51.734;8.744;2023-08-06T20:03:33;14.70;99.90
10980;DHT22;5543;51.734;8.744;2023-08-06T20:06:09;14.70;99.90
10980;DHT22;5543;51.734;8.744;2023-08-06T20:09:11;14.70;99.90
10980;DHT22;5543;51.734;8.744;2023-08-06T20:11:48;14.70;99.90
10980;DHT22;5543;51.734;8.744;2023-08-06T20:14:18;14.70;99.90
10980;DHT22;5543;51.734;8.744;2023-08-06T20:16:48;14.70;99.90
10980;DHT22;5543;51.734;8.744;2023-08-06T20:19:17;14.70;99.90
10980;DHT22;5543;51.734;8.744;2023-08-06T20:21:45;14.70;99.90
10980;DHT22;5543;51.734;8.744;2023-08-06T20:24:14;14.70;99.90
10980;DHT22;5543;51.734;8.744;2023-08-06T20:26:42;14.70;99.90
10980;DHT22;5543;51.734;8.744;2023-08-06T20:29:10;14.70;99.90
10980;DHT22;5543;51.734;8.744;2023-08-06T20:31:38;14.70;99.90
10980;DHT22;5543;51.734;8.744;2023-08-06T20:34:08;15.20;99.90
10980;DHT22;5543;51.734;8.744;2023-08-06T20:36:36;14.70;99.90
10980;DHT22;5543;51.734;8.744;2023-08-06T20:39:05;14.70;99.90
10980;DHT22;5543;51.734;8.744;2023-08-06T20:41:33;14.70;99.90
10980;DHT22;5543;51.734;8.744;2023-08-06T20:44:01;14.60;99.90
10980;DHT22;5543;51.734;8.744;2023-08-06T20:46:29;14.60;99.90
10980;DHT22;5543;51.734;8.744;2023-08-06T20:48:58;14.60;99.90
10980;DHT22;5543;51.734;8.744;2023-08-06T20:51:29;14.70;99.90
10980;DHT22;5543;51.734;8.744;2023-08-06T20:53:57;14.60;99.90
10980;DHT22;5543;51.734;8.744;2023-08-06T20:56:25;14.60;99.90
10980;DHT22;5543;51.734;8.744;2023-08-06T20:58:53;14.60;99.90
10980;DHT22;5543;51.734;8.744;2023-08-06T21:01:21;14.60;99.90
10980;DHT22;5543;51.734;8.744;2023-08-06T21:03:49;14.60;99.90
10980;DHT22;5543;51.734;8.744;2023-08-06T21:06:18;14.60;99.90
10980;DHT22;5543;51.734;8.744;2023-08-06T21:08:47;14.60;99.90
10980;DHT22;5543;51.734;8.744;2023-08-06T21:11:15;14.60;99.90
10980;DHT22;5543;51.734;8.744;2023-08-06T21:13:44;14.60;99.90
10980;DHT22;5543;51.734;8.744;2023-08-06T21:16:12;14.50;99.90
10980;DHT22;5543;51.734;8.744;2023-08-06T21:18:40;14.50;99.90
10980;DHT22;5543;51.734;8.744;2023-08-06T21:21:08;14.40;99.90
10980;DHT22;5543;51.734;8.744;2023-08-06T21:23:36;14.50;99.90
10980;DHT22;5543;51.734;8.744;2023-08-06T21:26:08;14.40;99.90
10980;DHT22;5543;51.734;8.744;2023-08-06T21:28:36;14.50;99.90
10980;DHT22;5543;51.734;8.744;2023-08-06T21:31:07;14.90;99.90
10980;DHT22;5543;51.734;8.744;2023-08-06T21:33:36;14.50;99.90
10980;DHT22;5543;51.734;8.744;2023-08-06T21:36:06;14.50;99.90
10980;DHT22;5543;51.734;8.744;2023-08-06T21:38:35;14.50;99.90
10980;DHT22;5543;51.734;8.744;2023-08-06T21:41:05;14.40;99.90
10980;DHT22;5543;51.734;8.744;2023-08-06T21:43:36;14.40;99.90
10980;DHT22;5543;51.734;8.744;2023-08-06T21:46:05;14.40;99.90
10980;DHT22;5543;51.734;8.744;2023-08-06T21:48:37;14.40;99.90
10980;DHT22;5543;51.734;8.744;2023-08-06T21:51:06;14.70;99.90
10980;DHT22;5543;51.734;8.744;2023-08-06T21:53:36;14.40;99.90
10980;DHT22;5543;51.734;8.744;2023-08-06T21:56:06;14.50;99.90
10980;DHT22;5543;51.734;8.744;2023-08-06T21:58:38;14.40;99.90
10980;DHT22;5543;51.734;8.744;2023-08-06T22:01:08;14.30;99.90
10980;DHT22;5543;51.734;8.744;2023-08-06T22:03:40;14.30;99.90
10980;DHT22;5543;51.734;8.744;2023-08-06T22:06:08;14.30;99.90
10980;DHT22;5543;51.734;8.744;2023-08-06T22:08:38;14.20;99.90
10980;DHT22;5543;51.734;8.744;2023-08-06T22:11:06;14.20;99.90
10980;DHT22;5543;51.734;8.744;2023-08-06T22:13:34;14.20;99.90
10980;DHT22;5543;51.734;8.744;2023-08-06T22:16:06;14.20;99.90
10980;DHT22;5543;51.734;8.744;2023-08-06T22:18:35;15.00;99.90
10980;DHT22;5543;51.734;8.744;2023-08-06T22:21:03;14.10;99.90
10980;DHT22;5543;51.734;8.744;2023-08-06T22:23:31;14.10;99.90
10980;DHT22;5543;51.734;8.744;2023-08-06T22:25:59;14.10;99.90
10980;DHT22;5543;51.734;8.744;2023-08-06T22:28:27;14.00;99.90
10980;DHT22;5543;51.734;8.744;2023-08-06T22:30:55;14.00;99.90
10980;DHT22;5543;51.734;8.744;2023-08-06T22:33:25;14.00;99.90
10980;DHT22;5543;51.734;8.744;2023-08-06T22:35:56;13.90;99.90
10980;DHT22;5543;51.734;8.744;2023-08-06T22:38:26;14.60;99.90
10980;DHT22;5543;51.734;8.744;2023-08-06T22:40:54;13.80;99.90
10980;DHT22;5543;51.734;8.744;2023-08-06T22:43:22;13.90;99.90
10980;DHT22;5543;51.734;8.744;2023-08-06T22:45:50;13.90;99.90
10980;DHT22;5543;51.734;8.744;2023-08-06T22:48:18;13.90;99.90
10980;DHT22;5543;51.734;8.744;2023-08-06T22:50:47;13.90;99.90
10980;DHT22;5543;51.734;8.744;2023-08-06T22:53:16;13.90;99.90
10980;DHT22;5543;51.734;8.744;2023-08-06T22:55:44;14.20;99.90
10980;DHT22;5543;51.734;8.744;2023-08-06T22:58:33;13.90;99.90
10980;DHT22;5543;51.734;8.744;2023-08-06T23:01:01;13.80;99.90
10980;DHT22;5543;51.734;8.744;2023-08-06T23:03:29;13.80;99.90
10980;DHT22;5543;51.734;8.744;2023-08-06T23:05:59;13.80;99.90
10980;DHT22;5543;51.734;8.744;2023-08-06T23:08:27;14.60;99.90
10980;DHT22;5543;51.734;8.744;2023-08-06T23:10:55;13.80;99.90
10980;DHT22;5543;51.734;8.744;2023-08-06T23:13:23;13.80;99.90
10980;DHT22;5543;51.734;8.744;2023-08-06T23:15:51;13.80;99.90
10980;DHT22;5543;51.734;8.744;2023-08-06T23:18:19;13.70;99.90
10980;DHT22;5543;51.734;8.744;2023-08-06T23:20:47;13.80;99.90
10980;DHT22;5543;51.734;8.744;2023-08-06T23:23:17;13.80;99.90
10980;DHT22;5543;51.734;8.744;2023-08-06T23:25:45;13.80;99.90
10980;DHT22;5543;51.734;8.744;2023-08-06T23:28:13;13.80;99.90
10980;DHT22;5543;51.734;8.744;2023-08-06T23:30:41;13.80;99.90
10980;DHT22;5543;51.734;8.744;2023-08-06T23:33:11;13.80;99.90
10980;DHT22;5543;51.734;8.744;2023-08-06T23:35:39;13.80;99.90
10980;DHT22;5543;51.734;8.744;2023-08-06T23:38:07;13.80;99.90
10980;DHT22;5543;51.734;8.744;2023-08-06T23:40:36;14.10;99.90
10980;DHT22;5543;51.734;8.744;2023-08-06T23:43:04;13.80;99.90
10980;DHT22;5543;51.734;8.744;2023-08-06T23:45:32;13.80;99.90
10980;DHT22;5543;51.734;8.744;2023-08-06T23:48:00;13.80;99.90
10980;DHT22;5543;51.734;8.744;2023-08-06T23:50:29;13.80;99.90
10980;DHT22;5543;51.734;8.744;2023-08-06T23:52:57;13.80;99.90
10980;DHT22;5543;51.734;8.744;2023-08-06T23:55:25;13.70;99.90
10980;DHT22;5543;51.734;8.744;2023-08-06T23:57:55;13.80;99.90
